TimeMDT,TemperatureF,Dew PointF,Humidity,Sea Level PressureIn,VisibilityMPH,Wind Direction,Wind SpeedMPH,Gust SpeedMPH,PrecipitationIn,Events,Conditions,WindDirDegrees,DateUTC
12:53 AM,54.0,42.1,64,30.09,10.0,NW,8.1,-,N/A,,Overcast,310,2012-09-07 06:53:00
1:53 AM,54.0,42.1,64,30.09,10.0,Calm,Calm,-,N/A,,Overcast,0,2012-09-07 07:53:00
2:53 AM,54.0,42.1,64,30.10,10.0,Calm,Calm,-,0.00,Rain,Light Rain,0,2012-09-07 08:53:00
3:53 AM,53.1,39.9,61,30.12,10.0,West,5.8,-,0.00,,Mostly Cloudy,270,2012-09-07 09:53:00
4:53 AM,52.0,41.0,66,30.13,10.0,West,3.5,-,N/A,,Overcast,270,2012-09-07 10:53:00
5:53 AM,48.9,41.0,74,30.16,10.0,WSW,8.1,-,N/A,,Clear,250,2012-09-07 11:53:00
6:53 AM,46.9,39.9,77,30.20,10.0,West,6.9,-,N/A,,Clear,270,2012-09-07 12:53:00
7:53 AM,50.0,39.9,68,30.22,10.0,West,3.5,-,N/A,,Clear,280,2012-09-07 13:53:00
8:53 AM,55.0,39.0,55,30.22,10.0,Calm,Calm,-,N/A,,Clear,0,2012-09-07 14:53:00
9:53 AM,57.9,43.0,58,30.21,10.0,North,3.5,-,N/A,,Clear,360,2012-09-07 15:53:00
10:53 AM,61.0,42.1,50,30.22,10.0,Variable,3.5,-,N/A,,Clear,0,2012-09-07 16:53:00
11:53 AM,63.0,41.0,45,30.22,10.0,Calm,Calm,-,N/A,,Clear,0,2012-09-07 17:53:00
12:53 PM,66.0,42.1,42,30.19,7.0,ESE,5.8,-,N/A,,Clear,120,2012-09-07 18:53:00
1:53 PM,69.1,41.0,36,30.17,5.0,North,4.6,-,N/A,,Haze,360,2012-09-07 19:53:00
2:53 PM,70.0,37.0,30,30.17,6.0,Variable,3.5,-,N/A,,Haze,0,2012-09-07 20:53:00
3:53 PM,72.0,37.0,28,30.16,8.0,Calm,Calm,-,N/A,,Clear,0,2012-09-07 21:53:00
4:53 PM,73.0,36.0,26,30.16,8.0,NNE,3.5,-,N/A,,Clear,20,2012-09-07 22:53:00
5:53 PM,71.1,36.0,28,30.17,10.0,North,5.8,-,N/A,,Clear,10,2012-09-07 23:53:00
6:53 PM,69.1,35.1,29,30.19,10.0,NE,4.6,-,N/A,,Clear,50,2012-09-08 00:53:00
7:53 PM,66.0,35.1,32,30.20,10.0,Calm,Calm,-,N/A,,Clear,0,2012-09-08 01:53:00
8:53 PM,61.0,35.1,38,30.22,10.0,WSW,10.4,-,N/A,,Clear,240,2012-09-08 02:53:00
9:53 PM,59.0,35.1,41,30.22,10.0,South,3.5,-,N/A,,Clear,180,2012-09-08 03:53:00
10:53 PM,60.1,35.1,39,30.22,10.0,Calm,Calm,-,N/A,,Clear,0,2012-09-08 04:53:00
11:53 PM,55.9,35.1,45,30.25,10.0,WNW,5.8,-,N/A,,Clear,300,2012-09-08 05:53:00